createdAt,value
2022-10-18T08:06:46.328Z,10.05
2022-10-18T08:11:48.801Z,9.73
2022-10-18T08:16:52.507Z,7.93
2022-10-18T08:22:10.855Z,7.63
2022-10-18T08:27:18.242Z,8.95
2022-10-18T08:32:27.562Z,7.47
2022-10-18T08:37:37.672Z,6.72
2022-10-18T08:43:15.996Z,6.90
2022-10-18T08:48:54.804Z,5.35
2022-10-18T08:54:26.799Z,6.72
2022-10-18T08:59:48.014Z,5.63
2022-10-18T09:05:25.134Z,6.25
2022-10-18T09:11:27.674Z,5.10
2022-10-18T09:17:13.662Z,4.50
2022-10-18T09:34:45.227Z,5.03
2022-10-18T09:40:28.637Z,2.90
2022-10-18T09:45:47.005Z,2.83
2022-10-18T10:03:37.907Z,3.47
2022-10-18T10:09:01.711Z,2.80
2022-10-18T10:14:45.821Z,2.08
2022-10-18T10:20:42.251Z,2.60
2022-10-18T10:26:08.278Z,2.63
2022-10-18T10:31:37.223Z,2.13
2022-10-18T12:41:01.857Z,1.70
2022-10-18T12:47:04.524Z,1.60
2022-10-18T12:58:08.523Z,2.67
2022-10-18T13:03:19.041Z,1.73
2022-10-18T13:08:37.854Z,1.40
2022-10-18T13:20:25.129Z,2.55
2022-10-18T13:26:22.971Z,2.72
2022-10-18T13:31:48.841Z,2.05
2022-10-18T14:06:31.371Z,1.95
2022-10-18T14:11:51.651Z,1.73
2022-10-18T14:17:25.547Z,2.42
2022-10-18T14:22:53.806Z,2.28
2022-10-18T14:28:31.396Z,1.90
2022-10-18T14:33:58.273Z,1.98
2022-10-18T14:39:23.843Z,2.30
2022-10-18T14:45:01.118Z,2.00
2022-10-18T14:50:30.967Z,2.10
2022-10-18T14:56:16.440Z,2.22
2022-10-18T15:01:34.540Z,2.80
2022-10-18T15:06:45.916Z,3.75
2022-10-18T15:17:42.758Z,2.45
2022-10-18T15:22:59.445Z,2.97
2022-10-18T15:28:32.839Z,2.65
2022-10-18T15:34:31.638Z,2.42
2022-10-18T15:56:42.894Z,2.33
2022-10-18T16:02:09.245Z,2.50
2022-10-18T16:07:23.299Z,3.17
2022-10-18T16:12:33.378Z,3.00
2022-10-18T16:23:32.106Z,3.10
2022-10-18T16:35:35.490Z,3.20
2022-10-18T17:04:43.122Z,4.00
2022-10-18T17:10:31.979Z,5.05
2022-10-18T17:15:59.486Z,4.50
2022-10-18T17:21:09.422Z,4.28
2022-10-18T17:26:30.114Z,3.63
2022-10-18T17:31:38.356Z,3.88
2022-10-18T17:36:49.986Z,4.37
2022-10-18T17:42:06.096Z,3.95
2022-10-18T17:47:16.002Z,5.03
2022-10-18T17:52:37.636Z,4.70
2022-10-18T17:57:48.146Z,5.97
2022-10-18T18:02:59.988Z,4.78
2022-10-18T18:08:07.393Z,5.15
2022-10-18T18:13:25.271Z,4.53
2022-10-18T18:18:29.976Z,6.10
2022-10-18T18:23:35.808Z,5.15
2022-10-18T18:28:40.335Z,5.63
2022-10-18T18:33:43.570Z,5.00
2022-10-18T18:38:47.773Z,6.50
2022-10-18T18:44:02.543Z,5.75
2022-10-18T18:54:33.967Z,5.82
2022-10-18T18:59:36.191Z,6.50
2022-10-18T19:04:41.748Z,5.97
2022-10-18T19:09:56.788Z,6.32
2022-10-18T19:15:03.420Z,6.28
2022-10-18T19:20:18.941Z,6.47
2022-10-18T19:25:24.810Z,7.50
2022-10-18T19:30:34.496Z,5.82
2022-10-18T19:35:40.174Z,6.90
2022-10-18T19:40:53.819Z,6.47
2022-10-18T19:45:56.083Z,6.95
2022-10-18T19:51:06.992Z,6.70
2022-10-18T19:56:21.472Z,7.45
2022-10-18T20:01:25.074Z,6.30
2022-10-18T20:06:27.641Z,6.95
2022-10-18T20:11:30.433Z,7.70
2022-10-18T20:16:36.640Z,7.68
2022-10-18T20:27:06.380Z,7.60
2022-10-18T20:32:14.930Z,7.00
2022-10-18T20:37:18.430Z,5.93
2022-10-18T20:42:20.528Z,6.22
2022-10-18T20:47:23.219Z,6.50
2022-10-18T20:52:26.589Z,5.70
2022-10-18T20:57:34.297Z,5.75
2022-10-18T21:02:56.848Z,8.03
2022-10-18T21:08:18.533Z,6.90
2022-10-18T21:13:23.272Z,6.82
2022-10-18T21:18:30.839Z,5.40
2022-10-18T21:23:36.058Z,5.70
2022-10-18T21:28:39.439Z,4.75
2022-10-18T21:33:54.764Z,6.68
2022-10-18T21:39:03.167Z,8.43
2022-10-18T21:44:10.729Z,5.07
2022-10-18T21:49:29.536Z,4.47
2022-10-18T21:54:33.206Z,7.18
2022-10-18T21:59:43.700Z,5.15
2022-10-18T22:04:57.203Z,4.50
2022-10-18T22:10:09.894Z,5.90
2022-10-18T22:15:18.988Z,6.22
2022-10-18T22:20:32.503Z,6.72
2022-10-18T22:25:37.834Z,5.78
2022-10-18T22:30:47.008Z,7.75
2022-10-18T22:35:52.987Z,6.63
2022-10-18T22:40:56.613Z,6.50
2022-10-18T22:46:06.826Z,6.05
2022-10-18T22:51:13.832Z,6.72
2022-10-18T22:56:31.084Z,5.93
2022-10-18T23:01:36.314Z,8.35
2022-10-18T23:06:49.984Z,7.97
2022-10-18T23:11:55.126Z,7.63
2022-10-18T23:17:02.781Z,6.13
2022-10-18T23:22:25.074Z,8.32
2022-10-18T23:27:33.867Z,7.75
2022-10-18T23:32:50.658Z,6.65
2022-10-18T23:37:54.436Z,6.88
2022-10-18T23:43:00.854Z,6.78
2022-10-18T23:48:04.124Z,7.68
2022-10-18T23:53:10.031Z,7.45
2022-10-18T23:58:28.998Z,8.30
